createdAt,value
2022-10-18T00:01:20.229Z,102636.78
2022-10-18T00:03:22.384Z,102628.81
2022-10-18T00:05:23.823Z,102632.38
2022-10-18T00:07:25.237Z,102636.81
2022-10-18T00:09:27.676Z,102632.44
2022-10-18T00:11:29.192Z,102630.66
2022-10-18T00:13:30.745Z,102628.03
2022-10-18T00:15:32.171Z,102635.13
2022-10-18T00:17:37.664Z,102641.34
2022-10-18T00:19:39.141Z,102629.81
2022-10-18T00:21:40.634Z,102636.06
2022-10-18T00:23:43.267Z,102636.13
2022-10-18T00:25:44.702Z,102637.94
2022-10-18T00:27:46.129Z,102641.50
2022-10-18T00:29:47.572Z,102653.03
2022-10-18T00:31:49.004Z,102645.06
2022-10-18T00:33:55.248Z,102641.50
2022-10-18T00:36:00.668Z,102642.41
2022-10-18T00:38:02.106Z,102644.19
2022-10-18T00:40:04.854Z,102640.69
2022-10-18T00:42:06.285Z,102643.34
2022-10-18T00:44:27.660Z,102635.41
2022-10-18T00:46:32.273Z,102640.78
2022-10-18T00:48:33.728Z,102634.59
2022-10-18T00:50:36.251Z,102640.81
2022-10-18T00:52:45.764Z,102645.25
2022-10-18T00:54:49.707Z,102653.25
2022-10-18T00:56:51.280Z,102648.00
2022-10-18T00:58:52.856Z,102649.75
2022-10-18T01:00:54.355Z,102651.56
2022-10-18T01:02:58.210Z,102658.66
2022-10-18T01:04:59.644Z,102659.56
2022-10-18T01:07:28.922Z,102661.34
2022-10-18T01:09:59.219Z,102660.50
2022-10-18T01:12:06.584Z,102657.88
2022-10-18T01:14:21.342Z,102661.41
2022-10-18T01:16:37.958Z,102655.25
2022-10-18T01:19:01.469Z,102657.06
2022-10-18T01:21:08.916Z,102647.34
2022-10-18T01:23:42.749Z,102655.34
2022-10-18T01:25:59.263Z,102656.25
2022-10-18T01:28:38.495Z,102663.38
2022-10-18T01:30:42.986Z,102662.47
2022-10-18T01:32:48.981Z,102666.00
2022-10-18T01:34:55.902Z,102662.47
2022-10-18T01:36:58.682Z,102658.97
2022-10-18T01:39:05.807Z,102658.09
2022-10-18T01:41:13.233Z,102658.13
2022-10-18T01:43:19.860Z,102654.66
2022-10-18T01:45:24.064Z,102652.88
2022-10-18T01:47:26.946Z,102658.19
2022-10-18T01:49:28.404Z,102653.75
2022-10-18T01:51:31.701Z,102656.41
2022-10-18T01:53:34.741Z,102659.06
2022-10-18T01:55:45.613Z,102644.94
2022-10-18T01:58:06.102Z,102648.56
2022-10-18T02:00:07.546Z,102651.22
2022-10-18T02:02:41.718Z,102649.47
2022-10-18T02:04:59.091Z,102651.25
2022-10-18T02:07:21.419Z,102645.06
2022-10-18T02:09:33.876Z,102646.84
2022-10-18T02:11:37.939Z,102643.31
2022-10-18T02:13:47.841Z,102638.88
2022-10-18T02:15:56.371Z,102632.72
2022-10-18T02:17:57.800Z,102631.84
2022-10-18T02:20:05.516Z,102626.53
2022-10-18T02:22:10.541Z,102636.31
2022-10-18T02:24:14.523Z,102632.78
2022-10-18T02:26:16.505Z,102629.28
2022-10-18T02:28:18.199Z,102622.22
2022-10-18T02:30:24.587Z,102627.56
2022-10-18T02:32:34.779Z,102623.16
2022-10-18T02:34:41.350Z,102625.84
2022-10-18T02:36:47.360Z,102627.63
2022-10-18T02:38:56.779Z,102624.97
2022-10-18T02:40:59.468Z,102629.38
2022-10-18T02:43:00.917Z,102622.31
2022-10-18T02:45:03.320Z,102631.16
2022-10-18T02:47:06.476Z,102623.22
2022-10-18T02:49:07.927Z,102619.69
2022-10-18T02:51:09.371Z,102624.09
2022-10-18T02:53:10.800Z,102617.03
2022-10-18T02:55:12.234Z,102621.44
2022-10-18T02:57:13.666Z,102616.09
2022-10-18T02:59:15.245Z,102618.75
2022-10-18T03:01:16.754Z,102614.31
2022-10-18T03:03:18.251Z,102616.06
2022-10-18T03:05:19.677Z,102627.53
2022-10-18T03:07:21.211Z,102623.09
2022-10-18T03:09:22.705Z,102625.69
2022-10-18T03:11:24.200Z,102622.13
2022-10-18T03:13:25.736Z,102622.09
2022-10-18T03:15:27.307Z,102620.28
2022-10-18T03:17:28.927Z,102623.81
2022-10-18T03:19:30.542Z,102637.03
2022-10-18T03:21:32.035Z,102631.63
2022-10-18T03:23:33.621Z,102637.75
2022-10-18T03:25:35.099Z,102632.41
2022-10-18T03:27:36.523Z,102627.06
2022-10-18T03:29:38.019Z,102619.94
2022-10-18T03:31:39.465Z,102628.75
2022-10-18T03:33:40.906Z,102627.88
2022-10-18T03:35:42.382Z,102629.59
2022-10-18T03:37:43.826Z,102625.16
2022-10-18T03:39:45.269Z,102623.38
2022-10-18T03:41:46.766Z,102626.00
2022-10-18T03:43:48.250Z,102626.88
2022-10-18T03:45:50.062Z,102623.34
2022-10-18T03:47:51.548Z,102628.66
2022-10-18T03:49:56.234Z,102624.22
2022-10-18T03:51:58.922Z,102622.44
2022-10-18T03:54:00.388Z,102618.88
2022-10-18T03:56:01.913Z,102613.56
2022-10-18T03:58:03.761Z,102618.00
2022-10-18T04:00:05.809Z,102619.78
2022-10-18T04:02:07.233Z,102613.56
2022-10-18T04:04:08.811Z,102610.91
2022-10-18T04:06:10.347Z,102616.19
2022-10-18T04:08:12.483Z,102620.63
2022-10-18T04:10:14.015Z,102620.59
2022-10-18T04:12:15.539Z,102612.63
2022-10-18T04:14:17.136Z,102606.44
2022-10-18T04:16:18.630Z,102608.22
2022-10-18T04:18:20.058Z,102619.69
2022-10-18T04:20:21.629Z,102623.22
2022-10-18T04:22:23.100Z,102614.38
2022-10-18T04:24:24.623Z,102617.94
2022-10-18T04:26:26.131Z,102607.31
2022-10-18T04:28:27.606Z,102612.63
2022-10-18T04:30:29.061Z,102612.63
2022-10-18T04:32:30.491Z,102613.53
2022-10-18T04:34:32.017Z,102610.91
2022-10-18T04:36:33.469Z,102616.22
2022-10-18T04:38:34.996Z,102620.63
2022-10-18T04:40:37.527Z,102610.84
2022-10-18T04:42:38.996Z,102617.03
2022-10-18T04:44:40.476Z,102616.16
2022-10-18T04:46:41.998Z,102620.56
2022-10-18T04:48:43.422Z,102610.84
2022-10-18T04:50:48.504Z,102617.91
2022-10-18T04:54:56.398Z,102617.94
2022-10-18T04:57:00.508Z,102617.94
2022-10-18T04:59:01.986Z,102616.19
2022-10-18T05:01:07.572Z,102611.75
2022-10-18T05:03:12.264Z,102611.78
2022-10-18T05:05:14.304Z,102611.78
2022-10-18T05:07:15.956Z,102615.31
2022-10-18T05:09:17.516Z,102613.56
2022-10-18T05:11:19.177Z,102612.69
2022-10-18T05:13:20.595Z,102614.47
2022-10-18T05:15:22.092Z,102624.19
2022-10-18T05:17:23.564Z,102618.91
2022-10-18T05:19:25.070Z,102623.34
2022-10-18T05:21:26.507Z,102618.91
2022-10-18T05:23:27.991Z,102616.25
2022-10-18T05:25:29.457Z,102621.56
2022-10-18T05:27:30.975Z,102626.00
2022-10-18T05:29:32.395Z,102627.78
2022-10-18T05:31:34.420Z,102625.09
2022-10-18T05:33:36.101Z,102624.25
2022-10-18T05:35:37.709Z,102627.81
2022-10-18T05:37:39.153Z,102628.69
2022-10-18T05:39:40.608Z,102625.16
2022-10-18T05:41:42.319Z,102626.94
2022-10-18T05:43:43.967Z,102632.22
2022-10-18T05:45:50.342Z,102629.59
2022-10-18T05:47:51.936Z,102629.63
2022-10-18T05:49:53.457Z,102632.28
2022-10-18T05:51:54.988Z,102631.41
2022-10-18T05:53:56.432Z,102630.50
2022-10-18T05:56:01.780Z,102632.25
2022-10-18T05:58:04.194Z,102635.81
2022-10-18T06:00:06.199Z,102636.72
2022-10-18T06:02:09.996Z,102638.47
2022-10-18T06:04:11.805Z,102641.13
2022-10-18T06:06:14.439Z,102650.03
2022-10-18T06:08:15.949Z,102649.16
2022-10-18T06:10:17.434Z,102655.38
2022-10-18T06:12:18.895Z,102642.09
2022-10-18T06:14:20.387Z,102639.44
2022-10-18T06:16:22.649Z,102636.78
2022-10-18T06:18:24.161Z,102638.53
2022-10-18T06:20:25.610Z,102652.72
2022-10-18T06:22:27.110Z,102646.53
2022-10-18T06:24:28.594Z,102646.50
2022-10-18T06:26:30.203Z,102642.97
2022-10-18T06:28:33.966Z,102652.66
2022-10-18T06:30:37.006Z,102653.53
2022-10-18T06:32:38.445Z,102655.31
2022-10-18T06:34:39.889Z,102666.81
2022-10-18T06:36:41.335Z,102667.72
2022-10-18T06:38:43.292Z,102670.34
2022-10-18T06:40:47.833Z,102668.59
2022-10-18T06:42:59.957Z,102684.50
2022-10-18T06:45:03.246Z,102679.19
2022-10-18T06:47:04.711Z,102678.31
2022-10-18T06:49:06.214Z,102681.88
2022-10-18T06:51:08.689Z,102677.44
2022-10-18T06:53:10.135Z,102684.53
2022-10-18T06:55:11.600Z,102690.72
2022-10-18T06:57:13.037Z,102695.16
2022-10-18T06:59:14.866Z,102694.28
2022-10-18T07:01:19.532Z,102689.00
2022-10-18T07:03:21.864Z,102697.84
2022-10-18T07:05:23.365Z,102697.84
2022-10-18T07:07:24.888Z,102688.13
2022-10-18T07:09:26.450Z,102686.34
2022-10-18T07:11:27.962Z,102701.38
2022-10-18T07:13:32.744Z,102711.09
2022-10-18T07:15:38.373Z,102708.44
2022-10-18T07:17:40.005Z,102716.41
2022-10-18T07:19:41.444Z,102718.19
2022-10-18T07:21:42.888Z,102726.13
2022-10-18T07:23:48.477Z,102727.91
2022-10-18T07:25:50.697Z,102725.22
2022-10-18T07:27:52.841Z,102717.28
2022-10-18T07:29:54.286Z,102719.94
2022-10-18T07:31:55.730Z,102727.94
2022-10-18T07:33:57.488Z,102737.72
2022-10-18T07:36:03.729Z,102735.06
2022-10-18T07:38:05.165Z,102734.25
2022-10-18T07:40:07.229Z,102738.72
2022-10-18T07:42:08.641Z,102738.72
2022-10-18T07:44:10.272Z,102746.66
2022-10-18T07:46:12.429Z,102744.91
2022-10-18T07:48:13.867Z,102744.03
2022-10-18T07:50:15.424Z,102749.31
2022-10-18T07:52:16.913Z,102745.81
2022-10-18T07:54:18.353Z,102747.63
2022-10-18T07:56:21.703Z,102756.44
2022-10-18T07:58:23.155Z,102763.53
2022-10-18T08:00:24.631Z,102757.34
2022-10-18T08:02:26.065Z,102764.44
2022-10-18T08:04:27.551Z,102764.44
2022-10-18T08:06:28.958Z,102766.25
2022-10-18T08:08:30.795Z,102761.84
2022-10-18T08:10:32.256Z,102760.97
2022-10-18T08:12:33.683Z,102760.03
2022-10-18T08:14:35.232Z,102763.56
2022-10-18T08:16:36.672Z,102765.28
2022-10-18T08:18:38.344Z,102764.34
2022-10-18T08:20:44.500Z,102760.78
2022-10-18T08:22:45.957Z,102758.94
2022-10-18T08:24:47.665Z,102765.97
2022-10-18T08:26:50.003Z,102750.03
2022-10-18T08:29:10.418Z,102749.13
2022-10-18T08:31:17.387Z,102751.72
2022-10-18T08:33:18.838Z,102747.28
2022-10-18T08:35:20.531Z,102750.78
2022-10-18T08:37:22.051Z,102748.97
2022-10-18T08:39:23.660Z,102750.69
2022-10-18T08:41:37.262Z,102749.75
2022-10-18T08:44:04.693Z,102752.38
2022-10-18T08:46:12.308Z,102762.03
2022-10-18T08:48:21.939Z,102771.72
2022-10-18T08:50:36.858Z,102755.00
2022-10-18T08:53:05.963Z,102741.69
2022-10-18T08:55:37.796Z,102755.75
2022-10-18T08:57:39.261Z,102762.88
2022-10-18T08:59:41.793Z,102747.94
2022-10-18T09:02:05.065Z,102747.09
2022-10-18T09:04:26.657Z,102760.41
2022-10-18T09:07:09.411Z,102757.66
2022-10-18T09:09:35.210Z,102752.25
2022-10-18T09:11:44.635Z,102749.53
2022-10-18T09:14:03.256Z,102754.72
2022-10-18T09:16:08.277Z,102755.50
2022-10-18T09:18:27.895Z,102753.59
2022-10-18T09:20:39.557Z,102751.66
2022-10-18T09:22:55.199Z,102749.88
2022-10-18T09:25:09.843Z,102759.59
2022-10-18T09:27:18.961Z,102756.06
2022-10-18T09:29:47.566Z,102746.31
2022-10-18T09:32:01.230Z,102750.78
2022-10-18T09:34:10.988Z,102760.47
2022-10-18T09:36:30.566Z,102752.38
2022-10-18T09:38:49.542Z,102747.88
2022-10-18T09:40:56.483Z,102746.00
2022-10-18T09:43:24.446Z,102748.53
2022-10-18T09:45:31.129Z,102743.13
2022-10-18T09:47:38.579Z,102748.41
2022-10-18T09:49:51.008Z,102754.53
2022-10-18T09:51:54.271Z,102753.59
2022-10-18T09:54:26.981Z,102741.13
2022-10-18T09:56:39.335Z,102745.44
2022-10-18T09:58:48.341Z,102753.38
2022-10-18T10:00:52.625Z,102751.59
2022-10-18T10:02:54.884Z,102746.34
2022-10-18T10:04:56.954Z,102755.19
2022-10-18T10:07:01.355Z,102760.44
2022-10-18T10:09:16.757Z,102756.91
2022-10-18T10:11:29.624Z,102768.25
2022-10-18T10:13:32.189Z,102768.16
2022-10-18T10:15:38.112Z,102765.47
2022-10-18T10:17:40.991Z,102767.16
2022-10-18T10:20:00.494Z,102768.88
2022-10-18T10:22:37.182Z,102771.44
2022-10-18T10:24:50.688Z,102778.41
2022-10-18T10:26:59.876Z,102779.06
2022-10-18T10:29:01.648Z,102775.28
2022-10-18T10:31:24.628Z,102772.41
2022-10-18T10:33:37.704Z,102777.63
2022-10-18T10:35:56.329Z,102780.94
2022-10-18T10:37:57.817Z,102783.22
2022-10-18T10:40:23.089Z,102778.28
2022-10-18T10:42:26.798Z,102783.13
2022-10-18T10:44:32.141Z,102782.84
2022-10-18T10:46:36.460Z,102781.56
2022-10-18T10:49:04.119Z,102779.44
2022-10-18T10:51:18.346Z,102784.13
2022-10-18T10:53:32.453Z,102789.22
2022-10-18T10:55:35.793Z,102783.41
2022-10-18T10:57:38.293Z,102775.94
2022-10-18T10:59:55.090Z,102787.50
2022-10-18T11:02:15.271Z,102784.72
2022-10-18T11:04:30.764Z,102786.00
2022-10-18T11:06:55.277Z,102781.84
2022-10-18T11:09:01.563Z,102788.97
2022-10-18T11:11:19.315Z,102787.63
2022-10-18T11:14:13.249Z,102780.63
2022-10-18T11:16:29.283Z,102785.06
2022-10-18T11:18:35.259Z,102784.59
2022-10-18T11:21:02.844Z,102791.47
2022-10-18T11:23:11.738Z,102798.00
2022-10-18T11:25:15.941Z,102801.50
2022-10-18T11:27:27.456Z,102801.50
2022-10-18T11:29:42.307Z,102802.94
2022-10-18T11:32:18.970Z,102804.28
2022-10-18T11:34:23.106Z,102797.06
2022-10-18T11:36:36.837Z,102800.06
2022-10-18T11:38:56.097Z,102799.28
2022-10-18T11:41:34.763Z,102793.81
2022-10-18T11:44:00.990Z,102793.16
2022-10-18T11:46:11.652Z,102800.72
2022-10-18T11:48:45.261Z,102796.63
2022-10-18T11:51:05.704Z,102804.66
2022-10-18T11:53:25.600Z,102800.25
2022-10-18T11:55:52.462Z,102804.56
2022-10-18T11:58:06.090Z,102797.28
2022-10-18T12:00:33.936Z,102803.34
2022-10-18T12:02:44.602Z,102804.91
2022-10-18T12:04:59.816Z,102807.06
2022-10-18T12:07:21.202Z,102806.53
2022-10-18T12:09:32.519Z,102803.13
2022-10-18T12:11:46.922Z,102806.88
2022-10-18T12:14:01.220Z,102796.38
2022-10-18T12:16:04.967Z,102793.81
2022-10-18T12:18:14.844Z,102798.25
2022-10-18T12:20:22.984Z,102799.25
2022-10-18T12:22:32.731Z,102803.84
2022-10-18T12:24:35.735Z,102799.41
2022-10-18T12:26:37.878Z,102801.28
2022-10-18T12:28:56.660Z,102802.22
2022-10-18T12:31:18.109Z,102799.47
2022-10-18T12:33:29.023Z,102803.03
2022-10-18T12:35:42.677Z,102794.16
2022-10-18T12:37:50.391Z,102797.75
2022-10-18T12:40:38.806Z,102798.78
2022-10-18T12:42:43.941Z,102797.88
2022-10-18T12:44:46.458Z,102805.84
2022-10-18T12:46:56.289Z,102800.41
2022-10-18T12:49:04.668Z,102802.94
2022-10-18T12:51:16.840Z,102808.22
2022-10-18T12:53:27.132Z,102812.75
2022-10-18T12:55:33.361Z,102814.56
2022-10-18T12:57:53.290Z,102812.94
2022-10-18T12:59:54.839Z,102813.97
2022-10-18T13:01:56.282Z,102805.19
2022-10-18T13:03:59.091Z,102815.97
2022-10-18T13:06:04.220Z,102815.94
2022-10-18T13:08:38.113Z,102818.66
2022-10-18T13:10:40.488Z,102812.47
2022-10-18T13:13:39.130Z,102806.28
2022-10-18T13:15:47.255Z,102800.88
2022-10-18T13:17:55.865Z,102801.75
2022-10-18T13:20:20.443Z,102807.25
2022-10-18T13:22:37.534Z,102803.66
2022-10-18T13:25:05.586Z,102810.69
2022-10-18T13:27:37.492Z,102799.09
2022-10-18T13:30:12.307Z,102808.81
2022-10-18T13:32:38.005Z,102794.69
2022-10-18T13:34:39.484Z,102799.94
2022-10-18T13:36:42.181Z,102801.69
2022-10-18T13:38:57.530Z,102805.19
2022-10-18T13:41:06.087Z,102798.00
2022-10-18T13:43:36.717Z,102806.88
2022-10-18T13:45:41.119Z,102804.13
2022-10-18T13:47:42.769Z,102800.53
2022-10-18T13:49:49.830Z,102791.59
2022-10-18T13:52:19.231Z,102793.25
2022-10-18T13:54:44.980Z,102801.19
2022-10-18T13:56:56.840Z,102794.06
2022-10-18T13:59:14.719Z,102802.06
2022-10-18T14:01:40.377Z,102803.78
2022-10-18T14:04:02.479Z,102798.44
2022-10-18T14:06:06.622Z,102804.59
2022-10-18T14:08:16.866Z,102808.09
2022-10-18T14:10:43.417Z,102793.91
2022-10-18T14:12:54.609Z,102804.72
2022-10-18T14:15:08.051Z,102806.53
2022-10-18T14:17:28.223Z,102804.00
2022-10-18T14:19:39.326Z,102808.59
2022-10-18T14:21:48.251Z,102808.75
2022-10-18T14:23:50.688Z,102808.06
2022-10-18T14:26:05.603Z,102812.63
2022-10-18T14:28:15.706Z,102814.56
2022-10-18T14:30:20.387Z,102816.44
2022-10-18T14:32:28.488Z,102817.41
2022-10-18T14:34:29.979Z,102824.53
2022-10-18T14:36:40.904Z,102820.03
2022-10-18T14:38:57.536Z,102818.22
2022-10-18T14:41:15.009Z,102817.25
2022-10-18T14:43:20.278Z,102821.59
2022-10-18T14:45:40.751Z,102818.81
2022-10-18T14:47:45.448Z,102812.50
2022-10-18T14:49:47.646Z,102816.03
2022-10-18T14:51:51.809Z,102816.00
2022-10-18T14:53:53.643Z,102819.47
2022-10-18T14:55:57.732Z,102818.56
2022-10-18T14:57:59.748Z,102807.84
2022-10-18T15:00:05.286Z,102807.84
2022-10-18T15:02:25.314Z,102804.41
2022-10-18T15:04:33.129Z,102807.13
2022-10-18T15:06:34.616Z,102813.41
2022-10-18T15:08:40.103Z,102811.69
2022-10-18T15:10:41.693Z,102810.88
2022-10-18T15:13:08.060Z,102803.81
2022-10-18T15:15:13.935Z,102811.78
2022-10-18T15:17:35.647Z,102818.91
2022-10-18T15:19:42.823Z,102810.94
2022-10-18T15:24:34.808Z,102812.75
2022-10-18T15:26:36.372Z,102808.38
2022-10-18T15:28:50.100Z,102808.50
2022-10-18T15:30:51.762Z,102804.19
2022-10-18T15:33:01.300Z,102801.56
2022-10-18T15:35:10.039Z,102806.94
2022-10-18T15:37:18.996Z,102807.00
2022-10-18T15:39:23.578Z,102804.53
2022-10-18T15:41:46.798Z,102802.84
2022-10-18T15:43:48.280Z,102803.81
2022-10-18T15:45:57.687Z,102796.81
2022-10-18T15:48:10.593Z,102806.66
2022-10-18T15:50:35.730Z,102802.31
2022-10-18T15:52:42.465Z,102797.97
2022-10-18T15:54:43.942Z,102802.47
2022-10-18T15:56:45.705Z,102805.16
2022-10-18T15:58:48.837Z,102808.75
2022-10-18T16:00:52.092Z,102801.72
2022-10-18T16:02:53.571Z,102810.59
2022-10-18T16:04:55.040Z,102807.06
2022-10-18T16:06:57.934Z,102802.66
2022-10-18T16:08:59.349Z,102804.47
2022-10-18T16:11:00.845Z,102803.59
2022-10-18T16:13:02.386Z,102810.72
2022-10-18T16:15:03.991Z,102802.81
2022-10-18T16:17:07.244Z,102800.16
2022-10-18T16:19:13.440Z,102802.84
2022-10-18T16:21:25.789Z,102808.31
2022-10-18T16:23:28.750Z,102811.94
2022-10-18T16:25:30.265Z,102808.47
2022-10-18T16:27:31.716Z,102816.56
2022-10-18T16:29:33.405Z,102809.47
2022-10-18T16:31:34.987Z,102808.63
2022-10-18T16:33:36.965Z,102819.31
2022-10-18T16:35:38.465Z,102814.03
2022-10-18T16:37:39.986Z,102822.94
2022-10-18T16:39:41.413Z,102821.19
2022-10-18T16:41:43.352Z,102822.13
2022-10-18T16:43:46.835Z,102829.22
2022-10-18T16:45:49.161Z,102824.84
2022-10-18T16:47:50.634Z,102832.84
2022-10-18T16:49:52.381Z,102839.91
2022-10-18T16:51:54.799Z,102835.47
2022-10-18T16:53:56.275Z,102847.88
2022-10-18T16:56:03.210Z,102850.53
2022-10-18T16:58:04.731Z,102860.31
2022-10-18T17:00:07.001Z,102871.00
2022-10-18T17:02:09.258Z,102865.72
2022-10-18T17:04:10.694Z,102863.09
2022-10-18T17:06:16.690Z,102866.66
2022-10-18T17:08:25.048Z,102860.47
2022-10-18T17:10:27.632Z,102857.84
2022-10-18T17:12:29.254Z,102842.81
2022-10-18T17:14:33.216Z,102849.88
2022-10-18T17:16:36.810Z,102852.59
2022-10-18T17:18:38.259Z,102860.59
2022-10-18T17:20:40.811Z,102859.75
2022-10-18T17:22:42.278Z,102864.19
2022-10-18T17:24:43.755Z,102867.75
2022-10-18T17:26:45.219Z,102866.03
2022-10-18T17:28:49.875Z,102869.59
2022-10-18T17:30:51.731Z,102867.88
2022-10-18T17:32:55.333Z,102876.72
2022-10-18T17:34:56.869Z,102876.75
2022-10-18T17:36:58.534Z,102882.06
2022-10-18T17:39:00.136Z,102876.78
2022-10-18T17:41:09.597Z,102890.94
2022-10-18T17:43:13.379Z,102887.38
2022-10-18T17:45:14.862Z,102888.28
2022-10-18T17:47:16.304Z,102890.06
2022-10-18T17:49:18.293Z,102896.25
2022-10-18T17:51:19.767Z,102905.97
2022-10-18T17:53:25.112Z,102903.31
2022-10-18T17:55:27.540Z,102899.75
2022-10-18T17:57:28.974Z,102905.06
2022-10-18T17:59:30.453Z,102903.31
2022-10-18T18:01:32.038Z,102904.22
2022-10-18T18:03:35.711Z,102912.19
2022-10-18T18:05:37.195Z,102906.88
2022-10-18T18:07:38.669Z,102911.28
2022-10-18T18:09:40.282Z,102913.97
2022-10-18T18:11:43.764Z,102908.66
2022-10-18T18:13:45.230Z,102913.97
2022-10-18T18:15:46.662Z,102909.56
2022-10-18T18:17:58.431Z,102904.25
2022-10-18T18:20:00.213Z,102921.09
2022-10-18T18:22:01.999Z,102920.25
2022-10-18T18:24:03.790Z,102921.16
2022-10-18T18:26:05.669Z,102928.25
2022-10-18T18:28:07.734Z,102929.16
2022-10-18T18:30:09.975Z,102926.50
2022-10-18T18:32:11.616Z,102922.09
2022-10-18T18:34:13.336Z,102921.19
2022-10-18T18:36:14.845Z,102920.28
2022-10-18T18:38:16.278Z,102918.53
2022-10-18T18:40:18.015Z,102920.31
2022-10-18T18:42:19.459Z,102926.50
2022-10-18T18:44:22.010Z,102926.50
2022-10-18T18:46:25.057Z,102925.56
2022-10-18T18:48:28.235Z,102929.09
2022-10-18T18:50:31.808Z,102924.69
2022-10-18T18:52:33.508Z,102924.72
2022-10-18T18:54:35.137Z,102929.16
2022-10-18T18:56:37.247Z,102924.75
2022-10-18T18:58:39.784Z,102930.91
2022-10-18T19:00:44.321Z,102931.81
2022-10-18T19:02:46.085Z,102935.34
2022-10-18T19:04:47.545Z,102938.00
2022-10-18T19:06:49.003Z,102941.53
2022-10-18T19:08:54.041Z,102938.00
2022-10-18T19:10:55.488Z,102938.88
2022-10-18T19:12:57.100Z,102937.97
2022-10-18T19:14:58.550Z,102938.84
2022-10-18T19:17:01.395Z,102935.31
2022-10-18T19:19:02.867Z,102940.59
2022-10-18T19:21:04.441Z,102931.75
2022-10-18T19:23:05.916Z,102937.94
2022-10-18T19:25:08.207Z,102930.00
2022-10-18T19:27:12.296Z,102934.41
2022-10-18T19:29:18.096Z,102938.81
2022-10-18T19:31:19.643Z,102944.13
2022-10-18T19:33:35.547Z,102938.84
2022-10-18T19:35:43.760Z,102948.56
2022-10-18T19:37:45.227Z,102952.97
2022-10-18T19:39:46.749Z,102946.81
2022-10-18T19:41:50.830Z,102950.34
2022-10-18T19:43:52.415Z,102945.03
2022-10-18T19:45:53.985Z,102945.03
2022-10-18T19:47:55.428Z,102943.25
2022-10-18T19:49:56.908Z,102944.16
2022-10-18T19:51:58.457Z,102946.81
2022-10-18T19:53:59.934Z,102942.38
2022-10-18T19:56:03.505Z,102941.50
2022-10-18T19:58:04.920Z,102937.97
2022-10-18T20:00:09.808Z,102942.41
2022-10-18T20:02:15.055Z,102939.75
2022-10-18T20:04:17.464Z,102937.09
2022-10-18T20:06:19.650Z,102938.88
2022-10-18T20:08:21.332Z,102935.34
2022-10-18T20:10:22.785Z,102932.69
2022-10-18T20:12:24.786Z,102944.16
2022-10-18T20:14:26.288Z,102944.16
2022-10-18T20:16:30.992Z,102945.94
2022-10-18T20:18:32.685Z,102942.41
2022-10-18T20:20:37.244Z,102941.53
2022-10-18T20:22:38.694Z,102933.59
2022-10-18T20:24:40.143Z,102937.13
2022-10-18T20:26:43.369Z,102936.25
2022-10-18T20:28:46.126Z,102937.16
2022-10-18T20:30:47.596Z,102942.44
2022-10-18T20:32:51.658Z,102938.03
2022-10-18T20:34:53.140Z,102944.22
2022-10-18T20:36:55.420Z,102930.09
2022-10-18T20:38:57.531Z,102938.91
2022-10-18T20:41:16.357Z,102931.84
2022-10-18T20:43:18.087Z,102943.34
2022-10-18T20:45:19.502Z,102931.84
2022-10-18T20:47:20.963Z,102924.78
2022-10-18T20:49:22.403Z,102930.97
2022-10-18T20:51:24.099Z,102929.22
2022-10-18T20:53:25.552Z,102933.63
2022-10-18T20:55:28.984Z,102938.91
2022-10-18T20:57:34.158Z,102936.28
2022-10-18T20:59:37.936Z,102939.81
2022-10-18T21:01:39.789Z,102940.69
2022-10-18T21:03:43.330Z,102938.91
2022-10-18T21:05:44.761Z,102939.81
2022-10-18T21:07:46.208Z,102931.84
2022-10-18T21:09:47.662Z,102936.25
2022-10-18T21:11:51.022Z,102930.06
2022-10-18T21:14:02.050Z,102930.06
2022-10-18T21:16:04.985Z,102930.97
2022-10-18T21:18:06.436Z,102936.28
2022-10-18T21:20:09.084Z,102937.16
2022-10-18T21:22:10.526Z,102945.09
2022-10-18T21:24:13.236Z,102940.69
2022-10-18T21:26:16.604Z,102938.03
2022-10-18T21:28:18.070Z,102944.22
2022-10-18T21:30:19.653Z,102948.63
2022-10-18T21:32:21.074Z,102944.22
2022-10-18T21:34:22.643Z,102954.84
2022-10-18T21:36:25.015Z,102953.94
2022-10-18T21:38:26.463Z,102947.78
2022-10-18T21:40:27.888Z,102951.31
2022-10-18T21:42:29.303Z,102964.59
2022-10-18T21:44:30.759Z,102950.44
2022-10-18T21:46:32.521Z,102956.66
2022-10-18T21:48:34.250Z,102950.47
2022-10-18T21:50:35.728Z,102959.31
2022-10-18T21:52:38.083Z,102944.28
2022-10-18T21:54:39.539Z,102947.81
2022-10-18T21:56:41.761Z,102946.06
2022-10-18T21:58:44.044Z,102941.66
2022-10-18T22:00:45.549Z,102946.09
2022-10-18T22:02:47.115Z,102936.38
2022-10-18T22:04:49.667Z,102941.72
2022-10-18T22:06:51.950Z,102945.25
2022-10-18T22:08:56.119Z,102944.38
2022-10-18T22:10:58.019Z,102939.94
2022-10-18T22:12:59.721Z,102941.72
2022-10-18T22:15:02.651Z,102927.59
2022-10-18T22:17:04.385Z,102936.44
2022-10-18T22:19:07.231Z,102931.13
2022-10-18T22:21:10.744Z,102928.50
2022-10-18T22:23:12.947Z,102930.25
2022-10-18T22:25:14.436Z,102924.97
2022-10-18T22:27:15.863Z,102929.41
2022-10-18T22:29:19.847Z,102920.56
2022-10-18T22:31:24.172Z,102922.34
2022-10-18T22:33:25.922Z,102917.09
2022-10-18T22:35:27.415Z,102915.31
2022-10-18T22:37:28.843Z,102925.91
2022-10-18T22:39:30.323Z,102925.91
2022-10-18T22:41:32.523Z,102925.91
2022-10-18T22:43:34.922Z,102911.78
2022-10-18T22:45:36.361Z,102917.97
2022-10-18T22:47:37.966Z,102919.75
2022-10-18T22:49:39.496Z,102909.16
2022-10-18T22:51:41.018Z,102917.09
2022-10-18T22:53:42.527Z,102911.81
2022-10-18T22:55:43.997Z,102909.16
2022-10-18T22:57:45.487Z,102911.75
2022-10-18T22:59:46.925Z,102911.75
2022-10-18T23:01:48.386Z,102905.59
2022-10-18T23:03:54.666Z,102899.41
2022-10-18T23:05:56.511Z,102905.56
2022-10-18T23:07:57.920Z,102896.75
2022-10-18T23:09:59.389Z,102896.75
2022-10-18T23:12:00.826Z,102902.03
2022-10-18T23:14:04.165Z,102900.28
2022-10-18T23:16:06.002Z,102905.53
2022-10-18T23:18:07.546Z,102906.41
2022-10-18T23:20:09.337Z,102913.44
2022-10-18T23:22:10.784Z,102916.97
2022-10-18T23:24:12.302Z,102917.84
2022-10-18T23:26:15.961Z,102920.50
2022-10-18T23:28:17.388Z,102914.31
2022-10-18T23:30:19.036Z,102916.09
2022-10-18T23:32:20.493Z,102929.31
2022-10-18T23:34:22.047Z,102926.66
2022-10-18T23:36:24.109Z,102925.78
2022-10-18T23:38:25.563Z,102920.50
2022-10-18T23:40:27.059Z,102919.63
2022-10-18T23:42:28.522Z,102924.91
2022-10-18T23:44:29.981Z,102925.78
2022-10-18T23:46:31.464Z,102930.22
2022-10-18T23:48:34.269Z,102939.06
2022-10-18T23:50:35.762Z,102940.81
2022-10-18T23:52:37.294Z,102933.75
2022-10-18T23:54:38.793Z,102935.53
2022-10-18T23:56:40.279Z,102937.28
2022-10-18T23:58:43.164Z,102934.59
